Rbd Italia — ICQC — position and weather

sailwx.info

Track history (hours):
 
Tides and Currents Weather Stations Pressure Air Temp Water Temp Dewpoint Dewpoint Depression Visibility Wind Speed Wind Dir Waves Ship Positions

Rbd Italia

Last reported at 2014-Aug-19 06:04 UTC. Time now 2014-Sep-03 07:17 UTC.
Position S 34°11' E 031°05'.
Warning: this ship's position is 15 days out of date.

Length 229 m; draft 14.2 m.

Type: Cargo ship. MMSI: 247303200.

Date/timePositionNaut miles runAvg speedWind from/ knotsBaromVisibWave heightAir tempDewpointWater temp
2014-Aug-19 06:04S 34°11' E 031°05'238 9.6
2014-Aug-18 05:22S 34°30' E 026°17'9 6.8
2014-Aug-18 04:04S 34°31' E 026°06'259 9.7
2014-Aug-17 01:22S 35°10' E 020°55'1010.5
2014-Aug-17 00:26S 35°11' E 020°43'1010.6
2014-Aug-16 23:32S 35°12' E 020°31'101 9.7
2014-Aug-16 13:04S 34°36' E 018°36'15 9.4
2014-Aug-16 11:30S 34°29' E 018°20'10 9.2
2014-Aug-16 10:22S 34°24' E 018°09'8 9.1
2014-Aug-16 09:29S 34°20' E 018°01'13 9.2
2014-Aug-16 08:05S 34°10' E 017°50'  
Track history (hours):
 
Tides and Currents Weather Stations Pressure Air Temp Water Temp Dewpoint Dewpoint Depression Visibility Wind Speed Wind Dir Waves Ship Positions

Rbd Italia

Last reported at 2014-Aug-19 06:04 UTC. Time now 2014-Sep-03 07:17 UTC.
Position S 34°11' E 031°05'.
Warning: this ship's position is 15 days out of date.

Length 229 m; draft 14.2 m.

Type: Cargo ship. MMSI: 247303200.

Date/timePositionNaut miles runAvg speedWind from/ knotsBaromVisibWave heightAir tempDewpointWater temp
2014-Aug-19 06:04S 34°11' E 031°05'238 9.6
2014-Aug-18 05:22S 34°30' E 026°17'9 6.8
2014-Aug-18 04:04S 34°31' E 026°06'259 9.7
2014-Aug-17 01:22S 35°10' E 020°55'1010.5
2014-Aug-17 00:26S 35°11' E 020°43'1010.6
2014-Aug-16 23:32S 35°12' E 020°31'101 9.7
2014-Aug-16 13:04S 34°36' E 018°36'15 9.4
2014-Aug-16 11:30S 34°29' E 018°20'10 9.2
2014-Aug-16 10:22S 34°24' E 018°09'8 9.1
2014-Aug-16 09:29S 34°20' E 018°01'13 9.2
2014-Aug-16 08:05S 34°10' E 017°50'  

Dump ship's entire track history